createdAt,value
2022-10-13T00:03:04.380Z,19.15
2022-10-13T00:07:06.029Z,21.60
2022-10-13T00:11:29.402Z,20.30
2022-10-13T00:15:31.172Z,22.73
2022-10-13T00:19:33.823Z,18.10
2022-10-13T00:23:35.975Z,20.12
2022-10-13T00:27:37.627Z,22.55
2022-10-13T00:31:39.839Z,20.65
2022-10-13T00:35:46.872Z,23.02
2022-10-13T00:39:48.548Z,21.17
2022-10-13T00:44:31.772Z,25.33
2022-10-13T00:48:33.452Z,21.08
2022-10-13T00:52:36.812Z,19.55
2022-10-13T00:56:39.530Z,20.58
2022-10-13T01:00:42.697Z,24.60
2022-10-13T01:04:47.192Z,19.23
2022-10-13T01:08:49.088Z,21.95
2022-10-13T01:12:53.569Z,21.27
2022-10-13T01:17:15.077Z,20.10
2022-10-13T01:21:25.628Z,21.20
2022-10-13T01:25:34.955Z,19.35
2022-10-13T01:30:04.733Z,20.30
2022-10-13T01:34:23.139Z,23.98
2022-10-13T01:38:49.129Z,25.02
2022-10-13T01:43:01.068Z,26.10
2022-10-13T01:47:03.964Z,20.73
2022-10-13T01:51:09.415Z,21.17
2022-10-13T01:55:13.102Z,23.90
2022-10-13T01:59:15.282Z,17.48
2022-10-13T02:03:41.742Z,19.83
2022-10-13T02:07:51.025Z,22.67
2022-10-13T02:11:59.702Z,24.65
2022-10-13T02:16:01.942Z,22.67
2022-10-13T02:20:06.320Z,22.20
2022-10-13T02:24:08.927Z,18.92
2022-10-13T02:28:12.643Z,15.60
2022-10-13T02:32:14.490Z,24.02
2022-10-13T02:36:16.163Z,20.73
2022-10-13T02:40:18.083Z,24.02
2022-10-13T02:44:20.922Z,22.67
2022-10-13T02:48:22.627Z,23.55
2022-10-13T02:52:24.322Z,19.95
2022-10-13T02:56:26.009Z,22.42
2022-10-13T03:00:27.834Z,23.12
2022-10-13T03:04:29.782Z,21.87
2022-10-13T03:08:35.447Z,21.05
2022-10-13T03:12:37.169Z,19.17
2022-10-13T03:16:38.824Z,19.90
2022-10-13T03:20:40.546Z,24.85
2022-10-13T03:24:42.781Z,21.95
2022-10-13T03:28:49.377Z,21.85
2022-10-13T03:32:51.102Z,22.97
2022-10-13T03:36:52.804Z,23.23
2022-10-13T03:40:54.464Z,24.55
2022-10-13T03:44:56.782Z,17.83
2022-10-13T03:48:58.627Z,17.92
2022-10-13T03:53:00.365Z,21.35
2022-10-13T03:57:02.016Z,19.83
2022-10-13T04:01:06.763Z,23.05
2022-10-13T04:05:08.856Z,23.33
2022-10-13T04:09:10.753Z,20.65
2022-10-13T04:13:12.430Z,26.42
2022-10-13T04:17:14.130Z,18.58
2022-10-13T04:21:16.226Z,19.73
2022-10-13T04:25:18.109Z,20.88
2022-10-13T04:29:19.799Z,25.33
2022-10-13T04:33:21.449Z,18.23
2022-10-13T04:37:24.007Z,20.42
2022-10-13T04:41:26.000Z,19.85
2022-10-13T04:45:27.816Z,19.95
2022-10-13T04:49:29.488Z,22.15
2022-10-13T04:53:31.887Z,20.23
2022-10-13T04:57:33.555Z,19.85
2022-10-13T05:01:35.882Z,19.27
2022-10-13T05:05:37.594Z,23.58
2022-10-13T05:09:39.343Z,19.25
2022-10-13T05:13:40.991Z,19.77
2022-10-13T05:17:42.684Z,18.62
2022-10-13T05:21:44.449Z,19.17
2022-10-13T05:25:46.151Z,18.25
2022-10-13T05:29:47.787Z,18.62
2022-10-13T05:33:50.328Z,20.20
2022-10-13T05:37:52.249Z,19.45
2022-10-13T05:41:53.997Z,20.05
2022-10-13T05:45:55.743Z,16.08
2022-10-13T05:49:57.387Z,20.45
2022-10-13T05:54:09.851Z,18.33
2022-10-13T05:58:11.624Z,18.87
2022-10-13T06:02:15.934Z,14.70
2022-10-13T06:06:17.627Z,17.12
2022-10-13T06:10:36.727Z,18.37
2022-10-13T06:14:38.415Z,17.65
2022-10-13T06:18:40.121Z,16.85
2022-10-13T06:22:41.784Z,17.37
2022-10-13T06:26:43.461Z,14.20
2022-10-13T06:30:53.575Z,19.52
2022-10-13T06:34:55.187Z,21.08
2022-10-13T06:38:56.867Z,20.70
2022-10-13T06:42:58.725Z,14.63
2022-10-13T06:47:00.872Z,24.55
2022-10-13T06:51:07.417Z,19.83
2022-10-13T06:55:09.380Z,20.83
2022-10-13T06:59:11.700Z,19.80
2022-10-13T07:03:13.349Z,20.35
2022-10-13T07:07:16.141Z,16.70
2022-10-13T07:11:18.575Z,17.70
2022-10-13T07:15:20.319Z,19.75
2022-10-13T07:19:22.027Z,23.15
2022-10-13T07:23:23.833Z,16.27
2022-10-13T07:27:25.758Z,19.12
2022-10-13T07:31:27.723Z,16.48
2022-10-13T07:35:30.855Z,16.25
2022-10-13T07:39:32.749Z,19.05
2022-10-13T07:43:34.518Z,17.08
2022-10-13T07:47:36.320Z,18.62
2022-10-13T07:51:38.012Z,16.70
2022-10-13T07:55:39.685Z,16.80
2022-10-13T07:59:41.400Z,20.60
2022-10-13T08:03:47.227Z,16.73
2022-10-13T08:07:54.699Z,17.45
2022-10-13T08:16:03.980Z,17.33
2022-10-13T08:20:06.889Z,17.05
2022-10-13T08:24:14.010Z,14.98
2022-10-13T08:28:17.944Z,15.25
2022-10-13T08:32:21.188Z,15.02
2022-10-13T08:36:23.273Z,12.45
2022-10-13T08:40:25.069Z,18.17
2022-10-13T08:49:00.619Z,15.27
2022-10-13T08:53:13.768Z,17.60
2022-10-13T08:57:15.652Z,19.60
2022-10-13T09:01:23.731Z,14.10
2022-10-13T09:05:37.636Z,14.87
2022-10-13T09:09:39.448Z,14.38
2022-10-13T09:13:41.206Z,14.00
2022-10-13T09:17:42.877Z,12.43
2022-10-13T09:21:44.625Z,12.25
2022-10-13T09:25:51.385Z,16.08
2022-10-13T09:29:53.060Z,15.82
2022-10-13T09:34:18.712Z,18.80
2022-10-13T09:38:25.024Z,13.65
2022-10-13T09:42:28.825Z,13.50
2022-10-13T09:46:38.520Z,14.77
2022-10-13T09:50:49.206Z,13.88
2022-10-13T09:54:53.331Z,15.00
2022-10-13T09:59:27.456Z,10.80
2022-10-13T10:03:35.333Z,14.32
2022-10-13T10:07:37.140Z,10.88
2022-10-13T10:11:43.863Z,16.33
2022-10-13T10:15:55.968Z,12.88
2022-10-13T10:20:39.212Z,12.43
2022-10-13T10:24:55.801Z,13.43
2022-10-13T10:29:19.568Z,15.77
2022-10-13T10:33:30.008Z,13.77
2022-10-13T10:37:38.640Z,12.75
2022-10-13T10:42:03.408Z,17.00
2022-10-13T10:46:12.657Z,16.58
2022-10-13T10:50:16.824Z,14.87
2022-10-13T10:54:39.791Z,13.70
2022-10-13T10:59:07.832Z,16.48
2022-10-13T11:03:34.884Z,16.12
2022-10-13T11:07:39.589Z,14.67
2022-10-13T11:11:42.859Z,14.23
2022-10-13T11:15:45.906Z,13.60
2022-10-13T11:19:48.476Z,14.38
2022-10-13T11:23:50.496Z,12.25
2022-10-13T11:27:52.257Z,13.60
2022-10-13T11:31:54.967Z,18.08
2022-10-13T11:35:56.681Z,19.23
2022-10-13T11:40:03.937Z,14.23
2022-10-13T11:48:48.734Z,15.38
2022-10-13T11:53:20.204Z,13.43
2022-10-13T11:57:26.899Z,14.93
2022-10-13T12:01:28.721Z,12.75
2022-10-13T12:05:31.795Z,18.62
2022-10-13T12:09:34.466Z,16.20
2022-10-13T12:13:36.867Z,13.75
2022-10-13T12:17:38.890Z,12.85
2022-10-13T12:21:51.726Z,10.65
2022-10-13T12:25:58.184Z,10.18
2022-10-13T12:30:01.480Z,11.53
2022-10-13T12:34:03.899Z,9.00
2022-10-13T12:38:15.629Z,8.93
2022-10-13T12:42:18.319Z,8.48
2022-10-13T12:46:47.341Z,6.93
2022-10-13T12:50:49.043Z,5.70
2022-10-13T12:54:55.759Z,8.77
2022-10-13T12:58:58.068Z,6.87
2022-10-13T13:03:01.042Z,6.37
2022-10-13T13:07:04.976Z,8.43
2022-10-13T13:11:19.316Z,5.30
2022-10-13T13:15:37.544Z,7.62
2022-10-13T13:19:43.648Z,7.62
2022-10-13T13:23:52.750Z,9.18
2022-10-13T13:27:55.824Z,10.38
2022-10-13T13:31:57.488Z,8.23
2022-10-13T13:35:59.264Z,10.77
2022-10-13T13:40:01.510Z,11.60
2022-10-13T13:44:03.176Z,7.93
2022-10-13T13:48:05.014Z,8.95
2022-10-13T13:52:06.658Z,10.65
2022-10-13T13:56:19.484Z,9.43
2022-10-13T14:00:21.527Z,11.12
2022-10-13T14:04:23.347Z,9.57
2022-10-13T14:08:25.045Z,9.32
2022-10-13T14:12:26.719Z,10.75
2022-10-13T14:16:28.785Z,9.48
2022-10-13T14:20:30.483Z,9.10
2022-10-13T14:24:32.223Z,11.48
2022-10-13T14:28:34.003Z,12.45
2022-10-13T14:32:39.012Z,12.43
2022-10-13T14:36:40.700Z,11.82
2022-10-13T14:40:42.380Z,9.52
2022-10-13T14:44:44.195Z,18.02
2022-10-13T14:48:45.897Z,12.18
2022-10-13T14:52:47.592Z,15.15
2022-10-13T14:56:49.336Z,18.45
2022-10-13T15:00:51.893Z,15.35
2022-10-13T15:04:53.532Z,19.10
2022-10-13T15:08:55.629Z,17.02
2022-10-13T15:12:57.396Z,13.95
2022-10-13T15:16:59.084Z,15.63
2022-10-13T15:21:00.769Z,15.13
2022-10-13T15:25:04.342Z,26.12
2022-10-13T15:29:06.092Z,15.55
2022-10-13T15:33:07.745Z,16.08
2022-10-13T15:37:09.418Z,16.15
2022-10-13T15:41:11.996Z,20.27
2022-10-13T15:45:14.288Z,17.65
2022-10-13T15:49:15.940Z,20.42
2022-10-13T15:53:18.029Z,17.12
2022-10-13T15:57:19.714Z,20.73
2022-10-13T16:01:21.455Z,20.62
2022-10-13T16:05:23.214Z,21.87
2022-10-13T16:09:24.922Z,21.17
2022-10-13T16:13:26.612Z,27.08
2022-10-13T16:17:28.280Z,22.65
2022-10-13T16:21:30.027Z,21.40
2022-10-13T16:25:32.021Z,20.83
2022-10-13T16:29:33.723Z,23.67
2022-10-13T16:33:36.341Z,19.42
2022-10-13T16:37:38.055Z,20.55
2022-10-13T16:41:40.381Z,25.00
2022-10-13T16:45:58.998Z,22.55
2022-10-13T16:50:01.721Z,23.95
2022-10-13T16:54:04.552Z,20.35
2022-10-13T16:58:06.436Z,23.83
2022-10-13T17:02:15.851Z,23.77
2022-10-13T17:06:19.620Z,22.00
2022-10-13T17:10:21.718Z,27.77
2022-10-13T17:14:23.414Z,21.17
2022-10-13T17:18:26.971Z,21.52
2022-10-13T17:22:28.596Z,20.08
2022-10-13T17:26:30.284Z,22.83
2022-10-13T17:30:31.954Z,22.02
2022-10-13T17:34:35.392Z,24.20
2022-10-13T17:38:37.099Z,26.40
2022-10-13T17:42:38.812Z,28.20
2022-10-13T17:46:40.485Z,30.42
2022-10-13T17:50:42.183Z,30.88
2022-10-13T17:54:43.902Z,28.10
2022-10-13T17:58:46.895Z,26.70
2022-10-13T18:02:48.681Z,20.77
2022-10-13T18:06:50.435Z,22.40
2022-10-13T18:11:08.627Z,22.62
2022-10-13T18:15:10.601Z,19.00
2022-10-13T18:19:12.808Z,37.05
2022-10-13T18:23:14.814Z,19.98
2022-10-13T18:27:16.479Z,22.25
2022-10-13T18:31:21.229Z,22.13
2022-10-13T18:35:23.004Z,19.27
2022-10-13T18:39:26.756Z,20.02
2022-10-13T18:43:30.305Z,20.02
2022-10-13T18:47:32.055Z,19.02
2022-10-13T18:51:36.312Z,22.37
2022-10-13T18:55:42.621Z,21.55
2022-10-13T18:59:44.293Z,24.48
2022-10-13T19:03:46.980Z,23.02
2022-10-13T19:07:48.657Z,21.35
2022-10-13T19:11:50.366Z,22.02
2022-10-13T19:15:59.790Z,23.90
2022-10-13T19:20:01.594Z,20.83
2022-10-13T19:24:03.684Z,24.00
2022-10-13T19:28:05.378Z,23.27
2022-10-13T19:32:07.693Z,23.10
2022-10-13T19:36:10.607Z,18.37
2022-10-13T19:40:12.264Z,19.08
2022-10-13T19:44:15.220Z,17.75
2022-10-13T19:48:16.905Z,18.17
2022-10-13T19:52:18.672Z,15.65
2022-10-13T19:56:34.047Z,16.25
2022-10-13T20:00:36.359Z,20.10
2022-10-13T20:04:38.051Z,16.42
2022-10-13T20:08:40.055Z,19.85
2022-10-13T20:12:41.742Z,12.95
2022-10-13T20:16:44.188Z,14.77
2022-10-13T20:20:45.916Z,16.80
2022-10-13T20:24:47.654Z,18.20
2022-10-13T20:28:50.949Z,11.70
2022-10-13T20:32:52.655Z,14.80
2022-10-13T20:36:54.329Z,15.80
2022-10-13T20:41:08.983Z,16.77
2022-10-13T20:45:10.726Z,13.73
2022-10-13T20:49:13.430Z,13.85
2022-10-13T20:53:15.357Z,14.93
2022-10-13T20:57:17.058Z,11.10
2022-10-13T21:01:21.036Z,15.18
2022-10-13T21:05:22.866Z,15.02
2022-10-13T21:09:24.578Z,13.05
2022-10-13T21:13:26.761Z,14.07
2022-10-13T21:17:29.863Z,16.60
2022-10-13T21:21:33.943Z,13.70
2022-10-13T21:25:35.764Z,13.25
2022-10-13T21:29:37.574Z,12.05
2022-10-13T21:33:40.391Z,18.23
2022-10-13T21:37:42.137Z,16.95
2022-10-13T21:41:43.904Z,15.90
2022-10-13T21:45:45.580Z,18.02
2022-10-13T21:49:47.284Z,16.33
2022-10-13T21:53:54.478Z,16.27
2022-10-13T21:57:59.619Z,17.30
2022-10-13T22:02:03.315Z,15.05
2022-10-13T22:06:15.914Z,17.73
2022-10-13T22:10:20.068Z,15.77
2022-10-13T22:14:21.765Z,16.48
2022-10-13T22:18:23.413Z,19.27
2022-10-13T22:22:30.754Z,17.12
2022-10-13T22:26:35.156Z,14.38
2022-10-13T22:30:37.689Z,16.98
2022-10-13T22:34:39.427Z,14.38
2022-10-13T22:38:41.326Z,15.68
2022-10-13T22:42:43.000Z,16.12
2022-10-13T22:46:44.784Z,17.77
2022-10-13T22:50:46.532Z,17.52
2022-10-13T22:54:48.189Z,14.20
2022-10-13T22:58:51.728Z,20.00
2022-10-13T23:02:53.457Z,19.90
2022-10-13T23:06:55.240Z,14.27
2022-10-13T23:10:57.820Z,18.00
2022-10-13T23:14:59.484Z,17.33
2022-10-13T23:19:01.457Z,15.27
2022-10-13T23:23:03.119Z,16.55
2022-10-13T23:27:04.827Z,14.52
2022-10-13T23:31:10.989Z,18.08
2022-10-13T23:35:12.828Z,16.42
2022-10-13T23:39:14.534Z,16.65
2022-10-13T23:43:16.398Z,17.87
2022-10-13T23:47:18.278Z,14.43
2022-10-13T23:51:23.059Z,14.40
2022-10-13T23:55:24.772Z,16.58
2022-10-13T23:59:26.444Z,18.00
